createdAt,value
2023-04-18T00:02:09.057Z,5.64
2023-04-18T00:04:36.797Z,5.65
2023-04-18T00:07:04.440Z,5.74
2023-04-18T00:09:31.947Z,6.07
2023-04-18T00:11:59.477Z,5.56
2023-04-18T00:14:30.098Z,5.54
2023-04-18T00:16:57.637Z,5.52
2023-04-18T00:19:25.163Z,5.49
2023-04-18T00:21:53.431Z,5.32
2023-04-18T00:24:21.075Z,5.66
2023-04-18T00:26:51.685Z,5.17
2023-04-18T00:29:19.170Z,5.17
2023-04-18T00:31:47.976Z,5.20
2023-04-18T00:34:15.611Z,5.83
2023-04-18T00:36:43.193Z,5.23
2023-04-18T00:39:10.715Z,5.09
2023-04-18T00:41:38.216Z,5.16
2023-04-18T00:44:06.129Z,5.25
2023-04-18T00:46:33.807Z,5.48
2023-04-18T00:49:03.184Z,5.36
2023-04-18T00:51:30.668Z,5.20
2023-04-18T00:53:58.406Z,5.30
2023-04-18T00:56:25.945Z,5.05
2023-04-18T00:58:53.487Z,5.44
2023-04-18T01:01:21.343Z,5.22
2023-04-18T01:03:48.984Z,5.85
2023-04-18T01:06:18.013Z,5.41
2023-04-18T01:08:45.872Z,5.71
2023-04-18T01:11:13.358Z,5.83
2023-04-18T01:13:40.862Z,5.30
2023-04-18T01:16:08.626Z,5.31
2023-04-18T01:18:37.094Z,5.04
2023-04-18T01:21:06.205Z,5.16
2023-04-18T01:23:35.094Z,5.05
2023-04-18T01:26:03.911Z,5.24
2023-04-18T01:28:31.402Z,5.28
2023-04-18T01:30:58.947Z,5.35
2023-04-18T01:33:26.454Z,5.18
2023-04-18T01:35:53.977Z,5.19
2023-04-18T01:38:21.448Z,5.11
2023-04-18T01:40:48.936Z,5.21
2023-04-18T01:43:17.751Z,5.13
2023-04-18T01:45:45.245Z,5.25
2023-04-18T01:48:12.730Z,5.13
2023-04-18T01:50:40.352Z,5.39
2023-04-18T01:53:07.842Z,5.15
2023-04-18T01:55:36.464Z,5.22
2023-04-18T01:58:03.972Z,5.08
2023-04-18T02:00:32.831Z,5.38
2023-04-18T02:03:00.584Z,5.63
2023-04-18T02:05:28.321Z,5.21
2023-04-18T02:07:55.992Z,5.09
2023-04-18T02:10:23.708Z,5.29
2023-04-18T02:12:51.232Z,5.13
2023-04-18T02:15:19.007Z,5.10
2023-04-18T02:17:49.051Z,5.20
2023-04-18T02:20:16.598Z,5.20
2023-04-18T02:22:44.425Z,5.27
2023-04-18T02:25:11.987Z,4.96
2023-04-18T02:27:39.475Z,5.08
2023-04-18T02:30:08.225Z,5.03
2023-04-18T02:32:35.915Z,4.98
2023-04-18T02:35:05.347Z,5.07
2023-04-18T02:37:32.837Z,5.46
2023-04-18T02:40:00.391Z,5.18
2023-04-18T02:42:27.908Z,5.15
2023-04-18T02:44:55.477Z,5.03
2023-04-18T02:47:22.942Z,5.08
2023-04-18T02:49:50.859Z,5.10
2023-04-18T02:52:19.663Z,5.04
2023-04-18T02:54:47.159Z,5.09
2023-04-18T02:57:14.651Z,5.03
2023-04-18T02:59:42.142Z,5.04
2023-04-18T03:02:09.715Z,5.10
2023-04-18T03:04:37.243Z,5.14
2023-04-18T03:07:04.759Z,5.28
2023-04-18T03:09:33.565Z,5.03
2023-04-18T03:12:02.113Z,5.07
2023-04-18T03:14:29.654Z,5.14
2023-04-18T03:16:57.227Z,5.10
2023-04-18T03:19:24.741Z,4.98
2023-04-18T03:21:54.305Z,4.99
2023-04-18T03:24:21.824Z,4.96
2023-04-18T03:26:50.715Z,5.02
2023-04-18T03:29:18.201Z,5.12
2023-04-18T03:31:45.907Z,5.11
2023-04-18T03:34:13.761Z,4.93
2023-04-18T03:36:41.396Z,5.06
2023-04-18T03:39:08.916Z,5.03
2023-04-18T03:41:36.406Z,4.97
2023-04-18T03:44:05.582Z,5.12
2023-04-18T03:46:33.104Z,5.04
2023-04-18T03:49:00.844Z,5.05
2023-04-18T03:51:28.430Z,4.99
2023-04-18T03:53:55.913Z,5.01
2023-04-18T03:56:23.441Z,4.98
2023-04-18T03:58:50.956Z,5.09
2023-04-18T04:01:19.790Z,5.06
2023-04-18T04:03:47.502Z,4.99
2023-04-18T04:06:15.569Z,4.96
2023-04-18T04:08:43.071Z,5.02
2023-04-18T04:11:10.573Z,4.96
2023-04-18T04:13:38.063Z,5.10
2023-04-18T04:16:06.594Z,5.13
2023-04-18T04:18:35.470Z,5.16
2023-04-18T04:21:04.102Z,4.98
2023-04-18T04:23:31.602Z,4.95
2023-04-18T04:25:59.258Z,4.98
2023-04-18T04:28:26.778Z,4.96
2023-04-18T04:30:55.480Z,5.01
2023-04-18T04:33:25.111Z,4.91
2023-04-18T04:35:54.273Z,4.99
2023-04-18T04:38:22.994Z,4.94
2023-04-18T04:40:50.959Z,5.01
2023-04-18T04:43:20.576Z,4.95
2023-04-18T04:45:49.556Z,4.97
2023-04-18T04:48:18.758Z,5.05
2023-04-18T04:50:54.271Z,5.08
2023-04-18T04:53:21.962Z,5.10
2023-04-18T04:55:49.756Z,4.92
2023-04-18T04:58:17.264Z,4.99
2023-04-18T05:00:44.738Z,4.90
2023-04-18T05:03:12.366Z,5.27
2023-04-18T05:05:40.234Z,5.11
2023-04-18T05:08:09.100Z,5.05
2023-04-18T05:10:37.412Z,4.87
2023-04-18T05:13:05.139Z,5.21
2023-04-18T05:15:32.704Z,5.03
2023-04-18T05:18:00.360Z,5.01
2023-04-18T05:20:27.848Z,4.89
2023-04-18T05:22:55.365Z,5.23
2023-04-18T05:25:24.158Z,5.20
2023-04-18T05:27:52.027Z,5.37
2023-04-18T05:30:19.729Z,5.54
2023-04-18T05:32:47.262Z,5.09
2023-04-18T05:35:14.810Z,5.05
2023-04-18T05:37:42.325Z,5.20
2023-04-18T05:40:10.799Z,5.14
2023-04-18T05:42:39.626Z,5.13
2023-04-18T05:45:08.085Z,5.47
2023-04-18T05:47:35.650Z,5.20
2023-04-18T05:50:03.288Z,5.21
2023-04-18T05:52:31.247Z,5.34
2023-04-18T05:54:58.746Z,5.35
2023-04-18T05:57:26.323Z,5.81
2023-04-18T05:59:55.116Z,5.38
2023-04-18T06:02:22.836Z,5.32
2023-04-18T06:04:51.525Z,5.36
2023-04-18T06:07:19.208Z,5.18
2023-04-18T06:09:46.677Z,5.40
2023-04-18T06:12:14.170Z,5.35
2023-04-18T06:14:41.654Z,5.21
2023-04-18T06:17:12.536Z,5.50
2023-04-18T06:19:40.223Z,5.40
2023-04-18T06:22:08.071Z,5.53
2023-04-18T06:24:35.648Z,5.26
2023-04-18T06:27:03.201Z,5.52
2023-04-18T06:29:33.103Z,5.40
2023-04-18T06:32:00.739Z,5.42
2023-04-18T06:34:29.576Z,5.98
2023-04-18T06:36:57.059Z,5.82
2023-04-18T06:39:24.681Z,5.81
2023-04-18T06:41:52.197Z,6.17
2023-04-18T06:44:19.676Z,6.08
2023-04-18T06:46:47.257Z,5.83
2023-04-18T06:49:14.746Z,6.30
2023-04-18T06:51:43.556Z,6.10
2023-04-18T06:54:11.381Z,6.43
2023-04-18T06:56:38.921Z,7.62
2023-04-18T06:59:06.416Z,6.97
2023-04-18T07:01:34.141Z,6.59
2023-04-18T07:04:04.602Z,6.60
2023-04-18T07:06:32.278Z,6.97
2023-04-18T07:09:01.565Z,6.67
2023-04-18T07:11:29.373Z,6.67
2023-04-18T07:13:56.877Z,6.44
2023-04-18T07:16:24.420Z,6.37
2023-04-18T07:18:52.551Z,6.45
2023-04-18T07:21:20.223Z,6.67
2023-04-18T07:23:47.720Z,7.54
2023-04-18T07:26:16.570Z,7.65
2023-04-18T07:28:44.047Z,7.33
2023-04-18T07:31:14.407Z,7.92
2023-04-18T07:33:43.262Z,7.53
2023-04-18T07:36:10.894Z,7.43
2023-04-18T07:38:38.399Z,7.77
2023-04-18T07:41:05.941Z,6.67
2023-04-18T07:43:34.783Z,6.95
2023-04-18T07:46:02.467Z,7.26
2023-04-18T07:48:29.982Z,7.61
2023-04-18T07:50:57.577Z,6.87
2023-04-18T07:53:25.101Z,7.71
2023-04-18T07:55:54.381Z,7.18
2023-04-18T07:58:22.023Z,7.19
2023-04-18T08:00:50.862Z,7.73
2023-04-18T08:03:18.522Z,8.51
2023-04-18T08:05:46.212Z,8.68
2023-04-18T08:08:13.827Z,7.24
2023-04-18T08:10:41.376Z,8.81
2023-04-18T08:13:09.485Z,8.31
2023-04-18T08:15:37.079Z,7.29
2023-04-18T08:18:06.157Z,9.59
2023-04-18T08:20:34.325Z,8.95
2023-04-18T08:23:08.617Z,8.17
2023-04-18T08:25:37.191Z,7.57
2023-04-18T08:28:04.837Z,7.65
2023-04-18T08:30:32.520Z,7.65
2023-04-18T08:33:00.320Z,7.61
2023-04-18T08:35:29.296Z,8.21
2023-04-18T08:37:56.805Z,7.68
2023-04-18T08:40:24.484Z,7.74
2023-04-18T08:42:53.808Z,8.57
2023-04-18T08:45:21.451Z,7.42
2023-04-18T08:47:49.055Z,8.18
2023-04-18T08:50:18.423Z,8.90
2023-04-18T08:52:48.747Z,10.09
2023-04-18T08:55:16.818Z,10.25
2023-04-18T08:57:44.876Z,10.20
2023-04-18T09:00:13.652Z,10.52
2023-04-18T09:02:43.605Z,9.38
2023-04-18T09:05:12.940Z,8.87
2023-04-18T09:07:40.592Z,8.72
2023-04-18T09:10:10.975Z,8.25
2023-04-18T09:12:44.617Z,9.33
2023-04-18T09:15:14.086Z,9.09
2023-04-18T09:17:43.569Z,11.16
2023-04-18T09:20:12.007Z,10.36
2023-04-18T09:22:47.758Z,10.59
2023-04-18T09:25:27.366Z,9.02
2023-04-18T09:27:55.076Z,8.61
2023-04-18T09:30:39.254Z,9.00
2023-04-18T09:33:09.493Z,8.79
2023-04-18T09:35:37.698Z,8.85
2023-04-18T09:38:05.556Z,8.66
2023-04-18T09:40:34.630Z,10.78
2023-04-18T09:43:02.262Z,8.86
2023-04-18T09:45:29.779Z,9.47
2023-04-18T09:47:57.291Z,8.74
2023-04-18T09:50:24.790Z,9.12
2023-04-18T09:52:52.252Z,8.60
2023-04-18T09:55:20.447Z,8.82
2023-04-18T09:57:49.937Z,9.37
2023-04-18T10:00:24.095Z,9.85
2023-04-18T10:02:55.110Z,10.12
2023-04-18T10:05:26.266Z,8.63
2023-04-18T10:07:54.865Z,8.92
2023-04-18T10:10:22.560Z,8.56
2023-04-18T10:12:53.718Z,9.14
2023-04-18T10:15:22.520Z,9.04
2023-04-18T10:18:04.476Z,8.46
2023-04-18T10:20:33.425Z,8.26
2023-04-18T10:23:01.294Z,8.49
2023-04-18T10:25:51.526Z,9.03
2023-04-18T10:28:21.402Z,9.00
2023-04-18T10:30:56.840Z,8.99
2023-04-18T10:33:32.162Z,9.93
2023-04-18T10:36:02.204Z,8.75
2023-04-18T10:38:30.058Z,9.44
2023-04-18T10:41:17.548Z,9.39
2023-04-18T10:44:19.420Z,9.40
2023-04-18T10:47:33.096Z,9.11
2023-04-18T10:50:06.192Z,9.57
2023-04-18T10:52:34.205Z,9.39
2023-04-18T10:55:18.695Z,9.92
2023-04-18T10:57:47.437Z,9.41
2023-04-18T11:00:18.052Z,8.97
2023-04-18T11:02:53.738Z,9.90
2023-04-18T11:05:23.606Z,9.55
2023-04-18T11:07:51.665Z,10.25
2023-04-18T11:10:20.761Z,11.31
2023-04-18T11:12:48.646Z,10.36
2023-04-18T11:15:21.613Z,9.86
2023-04-18T11:17:57.466Z,10.33
2023-04-18T11:20:25.117Z,11.39
2023-04-18T11:22:54.041Z,10.68
2023-04-18T11:25:25.098Z,11.85
2023-04-18T11:27:52.645Z,10.55
2023-04-18T11:30:21.660Z,11.61
2023-04-18T11:32:49.183Z,10.35
2023-04-18T11:35:17.373Z,11.75
2023-04-18T11:37:45.876Z,10.27
2023-04-18T11:40:14.396Z,11.25
2023-04-18T11:42:42.518Z,11.02
2023-04-18T11:45:11.777Z,11.92
2023-04-18T11:47:41.936Z,9.96
2023-04-18T11:50:11.352Z,11.11
2023-04-18T11:52:40.865Z,10.07
2023-04-18T11:55:13.957Z,11.12
2023-04-18T11:57:42.195Z,10.35
2023-04-18T12:00:12.260Z,10.29
2023-04-18T12:02:42.765Z,11.26
2023-04-18T12:05:11.633Z,10.72
2023-04-18T12:07:40.777Z,10.56
2023-04-18T12:10:09.761Z,11.62
2023-04-18T12:12:37.369Z,10.51
2023-04-18T12:15:08.829Z,10.94
2023-04-18T12:17:37.354Z,11.13
2023-04-18T12:20:10.026Z,12.30
2023-04-18T12:22:38.715Z,11.13
2023-04-18T12:25:20.143Z,11.59
2023-04-18T12:27:51.778Z,12.58
2023-04-18T12:30:21.923Z,11.69
2023-04-18T12:32:51.188Z,11.01
2023-04-18T12:35:20.753Z,11.40
2023-04-18T12:37:48.683Z,10.72
2023-04-18T12:40:18.899Z,11.33
2023-04-18T12:42:47.030Z,11.54
2023-04-18T12:45:15.534Z,10.72
2023-04-18T12:47:44.496Z,11.68
2023-04-18T12:50:12.989Z,11.82
2023-04-18T12:52:42.361Z,11.43
2023-04-18T12:55:10.706Z,11.24
2023-04-18T12:57:38.557Z,11.23
2023-04-18T13:00:10.382Z,11.21
2023-04-18T13:02:39.080Z,11.32
2023-04-18T13:05:07.858Z,10.86
2023-04-18T13:07:37.325Z,11.41
2023-04-18T13:10:07.505Z,11.74
2023-04-18T13:12:35.394Z,10.75
2023-04-18T13:15:03.526Z,11.01
2023-04-18T13:17:31.045Z,10.36
2023-04-18T13:19:58.570Z,10.69
2023-04-18T13:22:26.111Z,11.07
2023-04-18T13:24:53.593Z,11.04
2023-04-18T13:27:22.416Z,11.12
2023-04-18T13:29:49.999Z,11.49
2023-04-18T13:32:17.776Z,11.11
2023-04-18T13:34:47.463Z,11.21
2023-04-18T13:37:15.562Z,11.58
2023-04-18T13:39:43.049Z,12.02
2023-04-18T13:42:10.630Z,11.25
2023-04-18T13:44:39.759Z,10.83
2023-04-18T13:47:08.363Z,10.70
2023-04-18T13:49:36.321Z,11.02
2023-04-18T13:52:04.332Z,12.37
2023-04-18T13:54:33.383Z,11.81
2023-04-18T13:57:03.104Z,11.44
2023-04-18T13:59:32.414Z,11.31
2023-04-18T14:02:01.473Z,11.28
2023-04-18T14:04:29.555Z,11.29
2023-04-18T14:06:57.213Z,11.36
2023-04-18T14:09:24.694Z,11.59
2023-04-18T14:11:52.188Z,11.23
2023-04-18T14:14:19.686Z,11.68
2023-04-18T14:16:47.195Z,11.54
2023-04-18T14:19:16.106Z,11.64
2023-04-18T14:21:43.883Z,10.96
2023-04-18T14:24:11.408Z,12.38
2023-04-18T14:26:38.909Z,11.16
2023-04-18T14:29:06.469Z,11.58
2023-04-18T14:31:34.047Z,11.32
2023-04-18T14:34:01.667Z,11.21
2023-04-18T14:36:30.908Z,10.89
2023-04-18T14:38:59.063Z,10.76
2023-04-18T14:41:26.841Z,11.70
2023-04-18T14:43:54.379Z,11.67
2023-04-18T14:46:22.382Z,11.35
2023-04-18T14:48:49.942Z,11.34
2023-04-18T14:51:17.574Z,11.63
2023-04-18T14:53:46.551Z,11.63
2023-04-18T14:56:15.077Z,10.99
2023-04-18T14:58:43.827Z,11.70
2023-04-18T15:01:11.364Z,12.37
2023-04-18T15:03:39.005Z,12.45
2023-04-18T15:06:07.237Z,12.32
2023-04-18T15:08:34.761Z,11.55
2023-04-18T15:11:06.647Z,11.73
2023-04-18T15:13:34.307Z,11.03
2023-04-18T15:16:01.926Z,11.26
2023-04-18T15:18:29.525Z,11.06
2023-04-18T15:20:57.527Z,11.10
2023-04-18T15:23:25.017Z,11.15
2023-04-18T15:25:52.522Z,11.04
2023-04-18T15:28:21.372Z,10.99
2023-04-18T15:30:48.893Z,11.24
2023-04-18T15:33:17.842Z,11.50
2023-04-18T15:35:45.473Z,11.36
2023-04-18T15:38:12.993Z,11.68
2023-04-18T15:40:40.768Z,11.21
2023-04-18T15:43:08.344Z,11.02
2023-04-18T15:45:37.158Z,10.99
2023-04-18T15:48:04.957Z,11.38
2023-04-18T15:50:33.826Z,11.37
2023-04-18T15:53:01.592Z,10.94
2023-04-18T15:55:29.151Z,12.01
2023-04-18T15:57:56.693Z,12.28
2023-04-18T16:00:24.388Z,11.07
2023-04-18T16:02:53.288Z,11.28
2023-04-18T16:05:20.838Z,12.28
2023-04-18T16:07:48.372Z,11.26
2023-04-18T16:10:15.972Z,12.62
2023-04-18T16:12:43.503Z,12.28
2023-04-18T16:15:11.806Z,11.50
2023-04-18T16:17:39.585Z,11.16
2023-04-18T16:20:09.462Z,11.18
2023-04-18T16:22:37.380Z,11.11
2023-04-18T16:25:05.439Z,11.26
2023-04-18T16:27:33.256Z,11.35
2023-04-18T16:30:01.094Z,11.53
2023-04-18T16:32:28.683Z,11.35
2023-04-18T16:34:56.216Z,11.19
2023-04-18T16:37:25.044Z,11.50
2023-04-18T16:39:52.566Z,11.06
2023-04-18T16:42:20.029Z,11.46
2023-04-18T16:44:48.325Z,11.26
2023-04-18T16:47:15.996Z,11.05
2023-04-18T16:49:46.517Z,11.27
2023-04-18T16:52:14.160Z,11.67
2023-04-18T16:54:43.025Z,11.55
2023-04-18T16:57:10.732Z,11.35
2023-04-18T16:59:38.266Z,11.09
2023-04-18T17:02:06.762Z,11.41
2023-04-18T17:04:34.579Z,11.61
2023-04-18T17:07:02.097Z,11.24
2023-04-18T17:09:29.616Z,11.55
2023-04-18T17:11:58.961Z,11.77
2023-04-18T17:14:26.504Z,11.47
2023-04-18T17:16:54.206Z,12.06
2023-04-18T17:19:21.821Z,11.37
2023-04-18T17:21:50.936Z,11.26
2023-04-18T17:24:18.759Z,11.13
2023-04-18T17:26:46.271Z,11.26
2023-04-18T17:29:15.556Z,11.13
2023-04-18T17:31:43.304Z,11.10
2023-04-18T17:34:10.861Z,11.12
2023-04-18T17:36:38.394Z,11.63
2023-04-18T17:39:06.598Z,11.54
2023-04-18T17:41:36.520Z,11.06
2023-04-18T17:44:04.260Z,11.13
2023-04-18T17:46:33.275Z,11.19
2023-04-18T17:49:00.844Z,11.11
2023-04-18T17:51:28.339Z,11.05
2023-04-18T17:53:56.017Z,11.01
2023-04-18T17:56:23.859Z,11.04
2023-04-18T17:58:51.432Z,11.56
2023-04-18T18:01:19.821Z,11.10
2023-04-18T18:03:49.295Z,11.07
2023-04-18T18:06:16.991Z,11.47
2023-04-18T18:08:44.589Z,11.32
2023-04-18T18:11:12.132Z,11.16
2023-04-18T18:13:39.890Z,11.75
2023-04-18T18:16:08.728Z,11.53
2023-04-18T18:18:36.821Z,11.02
2023-04-18T18:21:05.753Z,10.98
2023-04-18T18:23:33.289Z,11.04
2023-04-18T18:26:01.240Z,11.03
2023-04-18T18:28:28.836Z,10.94
2023-04-18T18:30:56.367Z,11.33
2023-04-18T18:33:24.045Z,10.88
2023-04-18T18:35:51.706Z,10.81
2023-04-18T18:38:20.575Z,10.79
2023-04-18T18:40:48.137Z,10.86
2023-04-18T18:43:15.661Z,10.75
2023-04-18T18:45:43.213Z,10.72
2023-04-18T18:48:11.543Z,10.82
2023-04-18T18:50:39.064Z,10.68
2023-04-18T18:53:06.778Z,10.59
2023-04-18T18:55:35.552Z,10.58
2023-04-18T18:58:03.155Z,10.48
2023-04-18T19:00:30.632Z,10.46
2023-04-18T19:02:58.246Z,10.54
2023-04-18T19:05:26.012Z,10.40
2023-04-18T19:07:53.942Z,10.39
2023-04-18T19:10:21.733Z,10.49
2023-04-18T19:12:50.556Z,10.38
2023-04-18T19:15:18.111Z,10.43
2023-04-18T19:17:45.718Z,10.25
2023-04-18T19:20:13.297Z,10.26
2023-04-18T19:22:40.783Z,10.34
2023-04-18T19:25:09.764Z,10.20
2023-04-18T19:27:37.251Z,10.28
2023-04-18T19:30:07.416Z,10.16
2023-04-18T19:32:34.955Z,10.15
2023-04-18T19:35:02.466Z,10.11
2023-04-18T19:37:29.970Z,10.09
2023-04-18T19:39:57.462Z,10.05
2023-04-18T19:42:25.023Z,10.11
2023-04-18T19:44:52.529Z,10.00
2023-04-18T19:47:21.388Z,10.07
2023-04-18T19:49:48.908Z,9.98
2023-04-18T19:52:16.578Z,10.01
2023-04-18T19:54:44.066Z,9.95
2023-04-18T19:57:11.696Z,10.28
2023-04-18T19:59:39.315Z,9.89
2023-04-18T20:02:07.202Z,9.87
2023-04-18T20:04:36.444Z,9.79
2023-04-18T20:07:04.269Z,9.72
2023-04-18T20:09:31.785Z,9.68
2023-04-18T20:12:00.445Z,9.60
2023-04-18T20:14:28.434Z,9.58
2023-04-18T20:16:56.074Z,9.56
2023-04-18T20:19:25.608Z,9.68
2023-04-18T20:21:54.461Z,9.62
2023-04-18T20:24:21.988Z,9.55
2023-04-18T20:26:49.491Z,9.48
2023-04-18T20:29:17.071Z,9.45
2023-04-18T20:31:44.565Z,9.45
2023-04-18T20:34:12.215Z,9.54
2023-04-18T20:36:41.565Z,9.41
2023-04-18T20:39:10.458Z,9.37
2023-04-18T20:41:38.478Z,9.48
2023-04-18T20:44:06.726Z,9.35
2023-04-18T20:46:34.383Z,9.64
2023-04-18T20:49:02.067Z,9.41
2023-04-18T20:51:29.866Z,9.33
2023-04-18T20:53:57.359Z,9.44
2023-04-18T20:56:26.195Z,9.45
2023-04-18T20:58:53.662Z,9.45
2023-04-18T21:01:21.590Z,9.49
2023-04-18T21:03:49.260Z,9.24
2023-04-18T21:06:19.068Z,9.35
2023-04-18T21:08:46.545Z,9.23
2023-04-18T21:11:14.289Z,9.12
2023-04-18T21:13:43.070Z,9.04
2023-04-18T21:16:11.153Z,9.05
2023-04-18T21:18:38.704Z,9.05
2023-04-18T21:21:07.131Z,8.96
2023-04-18T21:23:34.606Z,8.95
2023-04-18T21:26:02.153Z,9.03
2023-04-18T21:28:29.652Z,9.02
2023-04-18T21:30:58.439Z,8.87
2023-04-18T21:33:26.197Z,8.84
2023-04-18T21:35:53.701Z,8.88
2023-04-18T21:38:25.216Z,8.88
2023-04-18T21:40:52.689Z,8.81
2023-04-18T21:43:21.388Z,8.84
2023-04-18T21:45:48.937Z,8.75
2023-04-18T21:48:17.792Z,8.84
2023-04-18T21:50:45.384Z,8.67
2023-04-18T21:53:12.853Z,8.64
2023-04-18T21:55:40.375Z,8.62
2023-04-18T21:58:08.037Z,8.50
2023-04-18T22:00:35.534Z,8.47
2023-04-18T22:03:03.150Z,8.41
2023-04-18T22:05:33.288Z,8.60
2023-04-18T22:08:00.794Z,8.36
2023-04-18T22:10:28.281Z,8.31
2023-04-18T22:12:55.986Z,8.34
2023-04-18T22:15:23.779Z,8.27
2023-04-18T22:17:51.298Z,8.23
2023-04-18T22:20:18.871Z,8.25
2023-04-18T22:22:47.652Z,8.19
2023-04-18T22:25:15.264Z,8.19
2023-04-18T22:27:43.084Z,8.15
2023-04-18T22:30:11.470Z,8.04
2023-04-18T22:32:39.012Z,8.01
2023-04-18T22:35:07.619Z,8.00
2023-04-18T22:37:35.099Z,8.00
2023-04-18T22:40:05.254Z,8.03
2023-04-18T22:42:33.736Z,7.96
2023-04-18T22:45:01.498Z,7.94
2023-04-18T22:47:29.033Z,8.34
2023-04-18T22:49:56.574Z,8.11
2023-04-18T22:52:25.023Z,8.12
2023-04-18T22:54:52.574Z,8.01
2023-04-18T22:57:21.713Z,7.97
2023-04-18T22:59:49.205Z,7.82
2023-04-18T23:02:16.848Z,7.93
2023-04-18T23:04:46.223Z,7.85
2023-04-18T23:07:13.981Z,7.81
2023-04-18T23:09:41.476Z,7.83
2023-04-18T23:12:09.032Z,7.70
2023-04-18T23:14:38.876Z,7.98
2023-04-18T23:17:06.376Z,7.64
2023-04-18T23:19:33.858Z,7.63
2023-04-18T23:22:01.372Z,7.54
2023-04-18T23:24:28.869Z,7.88
2023-04-18T23:26:57.006Z,7.70
2023-04-18T23:29:24.591Z,7.55
2023-04-18T23:31:53.459Z,7.51
2023-04-18T23:34:21.111Z,7.34
2023-04-18T23:36:48.565Z,7.28
2023-04-18T23:39:18.409Z,7.10
2023-04-18T23:41:46.031Z,7.15
2023-04-18T23:44:13.828Z,6.94
2023-04-18T23:46:41.726Z,6.88
2023-04-18T23:49:10.630Z,6.86
2023-04-18T23:51:38.579Z,6.69
2023-04-18T23:54:06.422Z,6.67
2023-04-18T23:56:34.538Z,6.73
2023-04-18T23:59:02.055Z,6.84
